sensor_id;sensor_type;location;lat;lon;timestamp;P1;durP1;ratioP1;P2;durP2;ratioP2
15990;SDS011;8100;50.994;4.538;2023-10-13T00:02:33;7.40;;;4.57;;
15990;SDS011;8100;50.994;4.538;2023-10-13T00:05:22;8.60;;;3.90;;
15990;SDS011;8100;50.994;4.538;2023-10-13T00:08:11;6.03;;;4.00;;
15990;SDS011;8100;50.994;4.538;2023-10-13T00:10:59;7.18;;;4.13;;
15990;SDS011;8100;50.994;4.538;2023-10-13T00:13:46;8.02;;;4.43;;
15990;SDS011;8100;50.994;4.538;2023-10-13T00:16:36;8.48;;;4.05;;
15990;SDS011;8100;50.994;4.538;2023-10-13T00:19:27;6.07;;;4.18;;
15990;SDS011;8100;50.994;4.538;2023-10-13T00:22:24;9.80;;;4.82;;
15990;SDS011;8100;50.994;4.538;2023-10-13T00:25:13;7.72;;;4.47;;
15990;SDS011;8100;50.994;4.538;2023-10-13T00:28:11;9.25;;;4.63;;
15990;SDS011;8100;50.994;4.538;2023-10-13T00:31:07;9.18;;;4.70;;
15990;SDS011;8100;50.994;4.538;2023-10-13T00:33:57;9.32;;;4.57;;
15990;SDS011;8100;50.994;4.538;2023-10-13T00:36:50;7.63;;;4.60;;
15990;SDS011;8100;50.994;4.538;2023-10-13T00:40:03;9.35;;;4.30;;
15990;SDS011;8100;50.994;4.538;2023-10-13T00:43:03;9.15;;;4.50;;
15990;SDS011;8100;50.994;4.538;2023-10-13T00:46:13;8.82;;;4.90;;
15990;SDS011;8100;50.994;4.538;2023-10-13T00:49:04;8.35;;;4.40;;
15990;SDS011;8100;50.994;4.538;2023-10-13T00:51:54;10.68;;;5.05;;
15990;SDS011;8100;50.994;4.538;2023-10-13T00:54:42;7.07;;;4.78;;
15990;SDS011;8100;50.994;4.538;2023-10-13T00:57:32;8.55;;;5.03;;
15990;SDS011;8100;50.994;4.538;2023-10-13T01:00:20;9.57;;;4.88;;
15990;SDS011;8100;50.994;4.538;2023-10-13T01:03:10;12.85;;;4.90;;
15990;SDS011;8100;50.994;4.538;2023-10-13T01:05:58;10.18;;;5.57;;
15990;SDS011;8100;50.994;4.538;2023-10-13T01:08:45;9.05;;;5.38;;
15990;SDS011;8100;50.994;4.538;2023-10-13T01:11:36;8.98;;;5.43;;
15990;SDS011;8100;50.994;4.538;2023-10-13T01:14:24;11.85;;;5.43;;
15990;SDS011;8100;50.994;4.538;2023-10-13T01:17:14;9.25;;;6.03;;
15990;SDS011;8100;50.994;4.538;2023-10-13T01:20:00;10.57;;;5.85;;
15990;SDS011;8100;50.994;4.538;2023-10-13T01:22:50;10.32;;;6.05;;
15990;SDS011;8100;50.994;4.538;2023-10-13T01:25:42;10.57;;;5.38;;
15990;SDS011;8100;50.994;4.538;2023-10-13T01:28:29;10.43;;;5.07;;
15990;SDS011;8100;50.994;4.538;2023-10-13T01:31:16;11.15;;;6.15;;
15990;SDS011;8100;50.994;4.538;2023-10-13T01:34:14;11.13;;;6.38;;
15990;SDS011;8100;50.994;4.538;2023-10-13T01:37:07;14.63;;;6.55;;
15990;SDS011;8100;50.994;4.538;2023-10-13T01:39:56;12.68;;;6.78;;
15990;SDS011;8100;50.994;4.538;2023-10-13T01:42:44;11.30;;;6.65;;
15990;SDS011;8100;50.994;4.538;2023-10-13T01:45:31;12.15;;;7.32;;
15990;SDS011;8100;50.994;4.538;2023-10-13T01:48:18;13.95;;;7.50;;
15990;SDS011;8100;50.994;4.538;2023-10-13T01:51:06;17.27;;;8.05;;
15990;SDS011;8100;50.994;4.538;2023-10-13T01:53:55;13.82;;;8.40;;
15990;SDS011;8100;50.994;4.538;2023-10-13T01:56:41;11.85;;;7.53;;
15990;SDS011;8100;50.994;4.538;2023-10-13T01:59:30;14.02;;;8.38;;
15990;SDS011;8100;50.994;4.538;2023-10-13T02:02:18;14.57;;;8.95;;
15990;SDS011;8100;50.994;4.538;2023-10-13T02:05:14;15.25;;;8.80;;
15990;SDS011;8100;50.994;4.538;2023-10-13T02:08:02;11.95;;;8.13;;
15990;SDS011;8100;50.994;4.538;2023-10-13T02:10:49;14.18;;;8.10;;
15990;SDS011;8100;50.994;4.538;2023-10-13T02:13:36;15.50;;;8.15;;
15990;SDS011;8100;50.994;4.538;2023-10-13T02:16:29;16.52;;;9.23;;
15990;SDS011;8100;50.994;4.538;2023-10-13T02:19:16;16.92;;;8.40;;
15990;SDS011;8100;50.994;4.538;2023-10-13T02:22:04;14.05;;;8.70;;
15990;SDS011;8100;50.994;4.538;2023-10-13T02:24:55;13.40;;;8.88;;
15990;SDS011;8100;50.994;4.538;2023-10-13T02:27:47;15.07;;;8.57;;
15990;SDS011;8100;50.994;4.538;2023-10-13T02:30:44;13.60;;;8.73;;
15990;SDS011;8100;50.994;4.538;2023-10-13T02:33:31;15.18;;;8.23;;
15990;SDS011;8100;50.994;4.538;2023-10-13T02:36:19;15.23;;;8.50;;
15990;SDS011;8100;50.994;4.538;2023-10-13T02:39:08;14.68;;;7.90;;
15990;SDS011;8100;50.994;4.538;2023-10-13T02:41:55;11.75;;;6.50;;
15990;SDS011;8100;50.994;4.538;2023-10-13T02:44:41;12.05;;;6.85;;
15990;SDS011;8100;50.994;4.538;2023-10-13T02:47:31;9.90;;;6.53;;
15990;SDS011;8100;50.994;4.538;2023-10-13T02:50:19;14.07;;;6.57;;
15990;SDS011;8100;50.994;4.538;2023-10-13T02:53:10;9.73;;;6.65;;
15990;SDS011;8100;50.994;4.538;2023-10-13T02:55:58;11.13;;;6.40;;
15990;SDS011;8100;50.994;4.538;2023-10-13T02:58:52;11.13;;;6.72;;
15990;SDS011;8100;50.994;4.538;2023-10-13T03:01:41;10.48;;;5.75;;
15990;SDS011;8100;50.994;4.538;2023-10-13T03:04:29;13.52;;;6.35;;
15990;SDS011;8100;50.994;4.538;2023-10-13T03:07:18;7.95;;;5.53;;
15990;SDS011;8100;50.994;4.538;2023-10-13T03:10:08;10.02;;;6.13;;
15990;SDS011;8100;50.994;4.538;2023-10-13T03:12:56;10.70;;;6.00;;
15990;SDS011;8100;50.994;4.538;2023-10-13T03:15:42;8.32;;;5.45;;
15990;SDS011;8100;50.994;4.538;2023-10-13T03:18:33;10.32;;;5.15;;
15990;SDS011;8100;50.994;4.538;2023-10-13T03:21:22;10.32;;;5.47;;
15990;SDS011;8100;50.994;4.538;2023-10-13T03:24:16;12.82;;;5.22;;
15990;SDS011;8100;50.994;4.538;2023-10-13T03:27:08;11.23;;;5.03;;
15990;SDS011;8100;50.994;4.538;2023-10-13T03:29:55;8.65;;;4.97;;
15990;SDS011;8100;50.994;4.538;2023-10-13T03:32:46;11.88;;;5.28;;
15990;SDS011;8100;50.994;4.538;2023-10-13T03:35:39;11.20;;;4.80;;
15990;SDS011;8100;50.994;4.538;2023-10-13T03:38:28;10.98;;;5.18;;
15990;SDS011;8100;50.994;4.538;2023-10-13T03:41:16;7.43;;;4.32;;
15990;SDS011;8100;50.994;4.538;2023-10-13T03:44:09;9.07;;;4.55;;
15990;SDS011;8100;50.994;4.538;2023-10-13T03:47:03;12.52;;;5.00;;
15990;SDS011;8100;50.994;4.538;2023-10-13T03:50:04;10.93;;;4.75;;
15990;SDS011;8100;50.994;4.538;2023-10-13T03:53:01;7.25;;;4.40;;
15990;SDS011;8100;50.994;4.538;2023-10-13T03:55:51;7.68;;;4.30;;
15990;SDS011;8100;50.994;4.538;2023-10-13T03:58:55;13.52;;;4.68;;
15990;SDS011;8100;50.994;4.538;2023-10-13T04:01:49;8.95;;;4.15;;
15990;SDS011;8100;50.994;4.538;2023-10-13T04:04:46;8.77;;;4.20;;
15990;SDS011;8100;50.994;4.538;2023-10-13T04:07:38;8.18;;;4.03;;
15990;SDS011;8100;50.994;4.538;2023-10-13T04:10:48;7.40;;;4.03;;
15990;SDS011;8100;50.994;4.538;2023-10-13T04:13:54;10.15;;;4.45;;
15990;SDS011;8100;50.994;4.538;2023-10-13T04:16:59;10.15;;;3.85;;
15990;SDS011;8100;50.994;4.538;2023-10-13T04:19:58;8.30;;;4.05;;
15990;SDS011;8100;50.994;4.538;2023-10-13T04:23:12;11.93;;;3.80;;
15990;SDS011;8100;50.994;4.538;2023-10-13T04:26:11;8.35;;;3.58;;
15990;SDS011;8100;50.994;4.538;2023-10-13T04:29:08;10.38;;;4.00;;
15990;SDS011;8100;50.994;4.538;2023-10-13T04:32:13;11.32;;;4.15;;
15990;SDS011;8100;50.994;4.538;2023-10-13T04:34:59;11.93;;;4.40;;
15990;SDS011;8100;50.994;4.538;2023-10-13T04:37:56;9.65;;;3.85;;
15990;SDS011;8100;50.994;4.538;2023-10-13T04:40:46;8.15;;;3.85;;
15990;SDS011;8100;50.994;4.538;2023-10-13T04:43:44;6.10;;;3.60;;
15990;SDS011;8100;50.994;4.538;2023-10-13T04:46:43;9.43;;;3.80;;
15990;SDS011;8100;50.994;4.538;2023-10-13T04:49:53;9.43;;;3.63;;
15990;SDS011;8100;50.994;4.538;2023-10-13T04:52:45;6.43;;;3.50;;
15990;SDS011;8100;50.994;4.538;2023-10-13T04:55:48;12.48;;;3.80;;
15990;SDS011;8100;50.994;4.538;2023-10-13T04:58:53;6.55;;;3.25;;
15990;SDS011;8100;50.994;4.538;2023-10-13T05:01:59;9.95;;;3.38;;
15990;SDS011;8100;50.994;4.538;2023-10-13T05:05:05;9.73;;;3.80;;
15990;SDS011;8100;50.994;4.538;2023-10-13T05:08:17;9.45;;;3.15;;
15990;SDS011;8100;50.994;4.538;2023-10-13T05:11:22;7.07;;;3.38;;
15990;SDS011;8100;50.994;4.538;2023-10-13T05:14:26;9.38;;;3.60;;
15990;SDS011;8100;50.994;4.538;2023-10-13T05:17:33;7.03;;;3.28;;
15990;SDS011;8100;50.994;4.538;2023-10-13T05:20:37;10.93;;;3.40;;
15990;SDS011;8100;50.994;4.538;2023-10-13T05:23:42;6.93;;;2.90;;
15990;SDS011;8100;50.994;4.538;2023-10-13T05:26:47;10.05;;;3.20;;
15990;SDS011;8100;50.994;4.538;2023-10-13T05:29:51;9.65;;;3.42;;
15990;SDS011;8100;50.994;4.538;2023-10-13T05:32:58;8.52;;;2.88;;
15990;SDS011;8100;50.994;4.538;2023-10-13T05:36:03;8.90;;;3.45;;
15990;SDS011;8100;50.994;4.538;2023-10-13T05:39:14;7.93;;;3.05;;
15990;SDS011;8100;50.994;4.538;2023-10-13T05:42:21;7.43;;;3.10;;
15990;SDS011;8100;50.994;4.538;2023-10-13T05:45:25;6.80;;;3.30;;
15990;SDS011;8100;50.994;4.538;2023-10-13T05:48:44;9.85;;;3.08;;
15990;SDS011;8100;50.994;4.538;2023-10-13T05:52:06;7.18;;;2.90;;
15990;SDS011;8100;50.994;4.538;2023-10-13T05:55:04;9.77;;;3.40;;
15990;SDS011;8100;50.994;4.538;2023-10-13T05:58:09;6.18;;;2.75;;
15990;SDS011;8100;50.994;4.538;2023-10-13T06:01:14;10.18;;;3.00;;
15990;SDS011;8100;50.994;4.538;2023-10-13T06:04:20;9.05;;;2.70;;
15990;SDS011;8100;50.994;4.538;2023-10-13T06:07:25;8.45;;;2.80;;
15990;SDS011;8100;50.994;4.538;2023-10-13T06:10:30;6.03;;;2.70;;
15990;SDS011;8100;50.994;4.538;2023-10-13T06:13:35;7.43;;;2.58;;
15990;SDS011;8100;50.994;4.538;2023-10-13T06:16:40;5.90;;;2.70;;
15990;SDS011;8100;50.994;4.538;2023-10-13T06:19:46;8.15;;;2.80;;
15990;SDS011;8100;50.994;4.538;2023-10-13T06:22:50;9.10;;;2.83;;
15990;SDS011;8100;50.994;4.538;2023-10-13T06:25:55;8.15;;;2.65;;
15990;SDS011;8100;50.994;4.538;2023-10-13T06:28:59;10.00;;;3.08;;
15990;SDS011;8100;50.994;4.538;2023-10-13T06:31:47;7.65;;;3.20;;
15990;SDS011;8100;50.994;4.538;2023-10-13T06:34:34;7.57;;;3.13;;
15990;SDS011;8100;50.994;4.538;2023-10-13T06:37:29;5.75;;;2.70;;
15990;SDS011;8100;50.994;4.538;2023-10-13T06:40:18;11.63;;;3.33;;
15990;SDS011;8100;50.994;4.538;2023-10-13T06:43:18;10.50;;;3.30;;
15990;SDS011;8100;50.994;4.538;2023-10-13T06:46:07;8.70;;;3.00;;
15990;SDS011;8100;50.994;4.538;2023-10-13T06:49:00;12.25;;;2.90;;
15990;SDS011;8100;50.994;4.538;2023-10-13T06:51:48;7.28;;;3.10;;
15990;SDS011;8100;50.994;4.538;2023-10-13T06:54:36;7.38;;;2.83;;
15990;SDS011;8100;50.994;4.538;2023-10-13T06:57:24;12.20;;;3.45;;
15990;SDS011;8100;50.994;4.538;2023-10-13T07:00:12;10.73;;;3.47;;
15990;SDS011;8100;50.994;4.538;2023-10-13T07:03:05;10.77;;;3.60;;
15990;SDS011;8100;50.994;4.538;2023-10-13T07:05:54;7.65;;;2.97;;
15990;SDS011;8100;50.994;4.538;2023-10-13T07:08:44;8.55;;;2.83;;
15990;SDS011;8100;50.994;4.538;2023-10-13T07:11:38;8.35;;;3.42;;
15990;SDS011;8100;50.994;4.538;2023-10-13T07:14:28;12.30;;;3.67;;
15990;SDS011;8100;50.994;4.538;2023-10-13T07:17:18;11.90;;;3.80;;
15990;SDS011;8100;50.994;4.538;2023-10-13T07:20:10;12.07;;;3.67;;
15990;SDS011;8100;50.994;4.538;2023-10-13T07:23:09;10.07;;;3.45;;
15990;SDS011;8100;50.994;4.538;2023-10-13T07:26:04;10.82;;;3.97;;
15990;SDS011;8100;50.994;4.538;2023-10-13T07:28:55;11.52;;;3.58;;
15990;SDS011;8100;50.994;4.538;2023-10-13T07:31:42;10.23;;;3.75;;
15990;SDS011;8100;50.994;4.538;2023-10-13T07:34:31;17.92;;;4.20;;
15990;SDS011;8100;50.994;4.538;2023-10-13T07:37:18;8.02;;;3.38;;
15990;SDS011;8100;50.994;4.538;2023-10-13T07:40:06;10.13;;;3.72;;
15990;SDS011;8100;50.994;4.538;2023-10-13T07:43:07;9.73;;;3.80;;
15990;SDS011;8100;50.994;4.538;2023-10-13T07:45:59;12.93;;;3.92;;
15990;SDS011;8100;50.994;4.538;2023-10-13T07:48:54;11.40;;;4.32;;
15990;SDS011;8100;50.994;4.538;2023-10-13T07:51:54;11.93;;;3.90;;
15990;SDS011;8100;50.994;4.538;2023-10-13T07:54:43;9.75;;;4.28;;
15990;SDS011;8100;50.994;4.538;2023-10-13T07:57:33;10.18;;;3.90;;
15990;SDS011;8100;50.994;4.538;2023-10-13T08:00:20;9.82;;;4.20;;
15990;SDS011;8100;50.994;4.538;2023-10-13T08:03:33;12.80;;;4.60;;
15990;SDS011;8100;50.994;4.538;2023-10-13T08:06:28;9.75;;;4.03;;
15990;SDS011;8100;50.994;4.538;2023-10-13T08:09:16;11.77;;;4.10;;
15990;SDS011;8100;50.994;4.538;2023-10-13T08:12:16;10.88;;;4.07;;
15990;SDS011;8100;50.994;4.538;2023-10-13T08:15:07;10.40;;;4.50;;
15990;SDS011;8100;50.994;4.538;2023-10-13T08:18:06;14.05;;;4.53;;
15990;SDS011;8100;50.994;4.538;2023-10-13T08:21:04;10.90;;;3.90;;
15990;SDS011;8100;50.994;4.538;2023-10-13T08:23:52;11.35;;;4.20;;
15990;SDS011;8100;50.994;4.538;2023-10-13T08:26:51;9.57;;;3.90;;
15990;SDS011;8100;50.994;4.538;2023-10-13T08:30:08;15.75;;;4.68;;
15990;SDS011;8100;50.994;4.538;2023-10-13T08:33:15;14.05;;;3.83;;
15990;SDS011;8100;50.994;4.538;2023-10-13T08:36:11;9.38;;;4.05;;
15990;SDS011;8100;50.994;4.538;2023-10-13T08:39:13;14.27;;;4.28;;
15990;SDS011;8100;50.994;4.538;2023-10-13T08:42:28;8.32;;;3.83;;
15990;SDS011;8100;50.994;4.538;2023-10-13T08:45:38;10.88;;;3.83;;
15990;SDS011;8100;50.994;4.538;2023-10-13T08:48:45;12.13;;;4.05;;
15990;SDS011;8100;50.994;4.538;2023-10-13T08:51:35;13.55;;;4.30;;
15990;SDS011;8100;50.994;4.538;2023-10-13T08:54:30;10.93;;;3.85;;
15990;SDS011;8100;50.994;4.538;2023-10-13T08:57:24;10.90;;;4.20;;
15990;SDS011;8100;50.994;4.538;2023-10-13T09:00:19;14.60;;;3.90;;
15990;SDS011;8100;50.994;4.538;2023-10-13T09:03:38;14.55;;;4.18;;
15990;SDS011;8100;50.994;4.538;2023-10-13T09:06:28;9.80;;;3.65;;
15990;SDS011;8100;50.994;4.538;2023-10-13T09:09:15;15.68;;;4.07;;
15990;SDS011;8100;50.994;4.538;2023-10-13T09:12:20;9.70;;;4.43;;
15990;SDS011;8100;50.994;4.538;2023-10-13T09:15:11;11.07;;;4.00;;
15990;SDS011;8100;50.994;4.538;2023-10-13T09:18:04;7.60;;;4.03;;
15990;SDS011;8100;50.994;4.538;2023-10-13T09:20:59;10.70;;;4.20;;
15990;SDS011;8100;50.994;4.538;2023-10-13T09:24:09;8.20;;;3.95;;
15990;SDS011;8100;50.994;4.538;2023-10-13T09:27:04;10.52;;;4.85;;
15990;SDS011;8100;50.994;4.538;2023-10-13T09:29:55;15.40;;;4.20;;
15990;SDS011;8100;50.994;4.538;2023-10-13T09:32:42;16.45;;;4.22;;
15990;SDS011;8100;50.994;4.538;2023-10-13T09:35:32;11.90;;;4.03;;
15990;SDS011;8100;50.994;4.538;2023-10-13T09:38:22;13.93;;;4.18;;
15990;SDS011;8100;50.994;4.538;2023-10-13T09:41:10;12.68;;;4.10;;
15990;SDS011;8100;50.994;4.538;2023-10-13T09:44:05;10.05;;;4.15;;
15990;SDS011;8100;50.994;4.538;2023-10-13T09:46:54;11.95;;;3.92;;
15990;SDS011;8100;50.994;4.538;2023-10-13T09:49:44;12.95;;;4.55;;
15990;SDS011;8100;50.994;4.538;2023-10-13T09:52:34;13.27;;;4.38;;
15990;SDS011;8100;50.994;4.538;2023-10-13T09:55:24;9.93;;;4.38;;
15990;SDS011;8100;50.994;4.538;2023-10-13T09:58:16;11.85;;;4.22;;
15990;SDS011;8100;50.994;4.538;2023-10-13T10:01:06;14.40;;;4.28;;
15990;SDS011;8100;50.994;4.538;2023-10-13T10:03:54;10.27;;;4.32;;
15990;SDS011;8100;50.994;4.538;2023-10-13T10:06:53;13.73;;;4.68;;
15990;SDS011;8100;50.994;4.538;2023-10-13T10:09:41;11.25;;;4.22;;
15990;SDS011;8100;50.994;4.538;2023-10-13T10:12:31;10.68;;;4.10;;
15990;SDS011;8100;50.994;4.538;2023-10-13T10:15:26;15.85;;;4.55;;
15990;SDS011;8100;50.994;4.538;2023-10-13T10:18:20;13.00;;;4.30;;
15990;SDS011;8100;50.994;4.538;2023-10-13T10:21:10;10.98;;;4.28;;
15990;SDS011;8100;50.994;4.538;2023-10-13T10:24:00;11.70;;;4.40;;
15990;SDS011;8100;50.994;4.538;2023-10-13T10:26:51;10.50;;;4.45;;
15990;SDS011;8100;50.994;4.538;2023-10-13T10:29:38;15.40;;;4.15;;
15990;SDS011;8100;50.994;4.538;2023-10-13T10:32:33;12.05;;;4.28;;
15990;SDS011;8100;50.994;4.538;2023-10-13T10:35:24;8.95;;;4.05;;
15990;SDS011;8100;50.994;4.538;2023-10-13T10:38:16;9.18;;;4.18;;
15990;SDS011;8100;50.994;4.538;2023-10-13T10:41:24;9.95;;;3.97;;
15990;SDS011;8100;50.994;4.538;2023-10-13T10:44:15;14.80;;;4.35;;
15990;SDS011;8100;50.994;4.538;2023-10-13T10:47:10;9.70;;;3.80;;
15990;SDS011;8100;50.994;4.538;2023-10-13T10:50:05;15.57;;;4.25;;
15990;SDS011;8100;50.994;4.538;2023-10-13T10:53:06;12.45;;;4.00;;
15990;SDS011;8100;50.994;4.538;2023-10-13T10:55:54;13.43;;;4.65;;
15990;SDS011;8100;50.994;4.538;2023-10-13T10:58:53;15.10;;;4.22;;
15990;SDS011;8100;50.994;4.538;2023-10-13T11:01:42;15.20;;;4.55;;
15990;SDS011;8100;50.994;4.538;2023-10-13T11:04:33;8.77;;;3.88;;
15990;SDS011;8100;50.994;4.538;2023-10-13T11:07:26;12.10;;;4.60;;
15990;SDS011;8100;50.994;4.538;2023-10-13T11:10:15;12.88;;;4.53;;
15990;SDS011;8100;50.994;4.538;2023-10-13T11:13:12;13.98;;;4.13;;
15990;SDS011;8100;50.994;4.538;2023-10-13T11:16:07;17.50;;;4.82;;
15990;SDS011;8100;50.994;4.538;2023-10-13T11:19:01;15.02;;;4.78;;
15990;SDS011;8100;50.994;4.538;2023-10-13T11:21:53;10.63;;;4.10;;
15990;SDS011;8100;50.994;4.538;2023-10-13T11:24:41;12.40;;;4.75;;
15990;SDS011;8100;50.994;4.538;2023-10-13T11:27:31;14.55;;;3.92;;
15990;SDS011;8100;50.994;4.538;2023-10-13T11:30:41;13.70;;;4.63;;
15990;SDS011;8100;50.994;4.538;2023-10-13T11:33:31;13.63;;;4.75;;
15990;SDS011;8100;50.994;4.538;2023-10-13T11:36:18;12.05;;;4.70;;
15990;SDS011;8100;50.994;4.538;2023-10-13T11:39:08;17.75;;;4.63;;
15990;SDS011;8100;50.994;4.538;2023-10-13T11:42:02;13.73;;;5.03;;
15990;SDS011;8100;50.994;4.538;2023-10-13T11:44:57;14.68;;;4.80;;
15990;SDS011;8100;50.994;4.538;2023-10-13T11:48:08;10.55;;;4.22;;
15990;SDS011;8100;50.994;4.538;2023-10-13T11:51:00;25.23;;;4.97;;
15990;SDS011;8100;50.994;4.538;2023-10-13T11:53:52;12.95;;;4.78;;
15990;SDS011;8100;50.994;4.538;2023-10-13T11:56:41;14.80;;;4.47;;
15990;SDS011;8100;50.994;4.538;2023-10-13T11:59:28;9.70;;;4.10;;
15990;SDS011;8100;50.994;4.538;2023-10-13T12:02:18;13.27;;;3.90;;
15990;SDS011;8100;50.994;4.538;2023-10-13T12:05:23;11.20;;;4.00;;
15990;SDS011;8100;50.994;4.538;2023-10-13T12:08:23;16.45;;;4.28;;
15990;SDS011;8100;50.994;4.538;2023-10-13T12:11:18;13.70;;;4.22;;
15990;SDS011;8100;50.994;4.538;2023-10-13T12:14:17;8.82;;;3.55;;
15990;SDS011;8100;50.994;4.538;2023-10-13T12:17:07;14.88;;;4.35;;
15990;SDS011;8100;50.994;4.538;2023-10-13T12:19:57;9.43;;;3.50;;
15990;SDS011;8100;50.994;4.538;2023-10-13T12:22:45;10.80;;;3.40;;
15990;SDS011;8100;50.994;4.538;2023-10-13T12:25:40;10.95;;;4.00;;
15990;SDS011;8100;50.994;4.538;2023-10-13T12:28:45;7.80;;;3.50;;
15990;SDS011;8100;50.994;4.538;2023-10-13T12:31:37;18.90;;;3.65;;
15990;SDS011;8100;50.994;4.538;2023-10-13T12:34:25;11.48;;;3.95;;
15990;SDS011;8100;50.994;4.538;2023-10-13T12:37:33;8.95;;;3.47;;
15990;SDS011;8100;50.994;4.538;2023-10-13T12:40:35;13.90;;;3.80;;
15990;SDS011;8100;50.994;4.538;2023-10-13T12:43:40;8.75;;;3.47;;
15990;SDS011;8100;50.994;4.538;2023-10-13T12:46:45;10.45;;;3.67;;
15990;SDS011;8100;50.994;4.538;2023-10-13T12:49:49;10.18;;;3.35;;
15990;SDS011;8100;50.994;4.538;2023-10-13T12:52:44;7.72;;;3.35;;
15990;SDS011;8100;50.994;4.538;2023-10-13T12:55:32;9.95;;;3.50;;
15990;SDS011;8100;50.994;4.538;2023-10-13T12:58:19;11.52;;;3.47;;
15990;SDS011;8100;50.994;4.538;2023-10-13T13:01:12;10.05;;;3.50;;
15990;SDS011;8100;50.994;4.538;2023-10-13T13:03:59;13.15;;;3.58;;
15990;SDS011;8100;50.994;4.538;2023-10-13T13:06:49;10.93;;;3.42;;
15990;SDS011;8100;50.994;4.538;2023-10-13T13:09:41;11.00;;;3.35;;
15990;SDS011;8100;50.994;4.538;2023-10-13T13:12:28;8.95;;;3.22;;
15990;SDS011;8100;50.994;4.538;2023-10-13T13:15:15;9.07;;;3.55;;
15990;SDS011;8100;50.994;4.538;2023-10-13T13:18:09;11.63;;;3.50;;
15990;SDS011;8100;50.994;4.538;2023-10-13T13:20:59;15.88;;;3.53;;
15990;SDS011;8100;50.994;4.538;2023-10-13T13:23:47;12.18;;;3.72;;
15990;SDS011;8100;50.994;4.538;2023-10-13T13:26:36;10.95;;;3.72;;
15990;SDS011;8100;50.994;4.538;2023-10-13T13:29:26;8.23;;;3.50;;
15990;SDS011;8100;50.994;4.538;2023-10-13T13:32:13;8.70;;;3.40;;
15990;SDS011;8100;50.994;4.538;2023-10-13T13:35:04;8.43;;;3.25;;
15990;SDS011;8100;50.994;4.538;2023-10-13T13:37:53;12.73;;;3.17;;
15990;SDS011;8100;50.994;4.538;2023-10-13T13:40:50;8.68;;;3.53;;
15990;SDS011;8100;50.994;4.538;2023-10-13T13:43:40;9.45;;;3.65;;
15990;SDS011;8100;50.994;4.538;2023-10-13T13:46:36;8.15;;;3.70;;
15990;SDS011;8100;50.994;4.538;2023-10-13T13:49:26;9.25;;;3.83;;
15990;SDS011;8100;50.994;4.538;2023-10-13T13:52:25;20.63;;;4.43;;
15990;SDS011;8100;50.994;4.538;2023-10-13T13:55:19;10.45;;;3.92;;
15990;SDS011;8100;50.994;4.538;2023-10-13T13:58:07;13.23;;;3.75;;
15990;SDS011;8100;50.994;4.538;2023-10-13T14:01:00;11.23;;;3.90;;
15990;SDS011;8100;50.994;4.538;2023-10-13T14:03:57;8.80;;;3.40;;
15990;SDS011;8100;50.994;4.538;2023-10-13T14:06:48;12.50;;;3.47;;
15990;SDS011;8100;50.994;4.538;2023-10-13T14:09:36;10.70;;;3.90;;
15990;SDS011;8100;50.994;4.538;2023-10-13T14:12:26;10.77;;;3.92;;
15990;SDS011;8100;50.994;4.538;2023-10-13T14:15:15;13.18;;;4.00;;
15990;SDS011;8100;50.994;4.538;2023-10-13T14:18:10;11.75;;;3.92;;
15990;SDS011;8100;50.994;4.538;2023-10-13T14:21:00;8.98;;;3.78;;
15990;SDS011;8100;50.994;4.538;2023-10-13T14:23:49;8.40;;;3.72;;
15990;SDS011;8100;50.994;4.538;2023-10-13T14:26:39;13.52;;;3.92;;
15990;SDS011;8100;50.994;4.538;2023-10-13T14:29:28;9.70;;;3.83;;
15990;SDS011;8100;50.994;4.538;2023-10-13T14:32:15;7.45;;;3.65;;
15990;SDS011;8100;50.994;4.538;2023-10-13T14:35:04;12.27;;;4.25;;
15990;SDS011;8100;50.994;4.538;2023-10-13T14:38:00;9.98;;;3.55;;
15990;SDS011;8100;50.994;4.538;2023-10-13T14:40:55;10.55;;;4.30;;
15990;SDS011;8100;50.994;4.538;2023-10-13T14:43:43;22.20;;;4.30;;
15990;SDS011;8100;50.994;4.538;2023-10-13T14:46:33;13.27;;;3.40;;
15990;SDS011;8100;50.994;4.538;2023-10-13T14:49:24;10.18;;;3.38;;
15990;SDS011;8100;50.994;4.538;2023-10-13T14:52:13;8.65;;;3.78;;
15990;SDS011;8100;50.994;4.538;2023-10-13T14:55:03;9.07;;;3.33;;
15990;SDS011;8100;50.994;4.538;2023-10-13T14:57:52;10.27;;;3.55;;
15990;SDS011;8100;50.994;4.538;2023-10-13T15:00:40;12.07;;;4.20;;
15990;SDS011;8100;50.994;4.538;2023-10-13T15:03:30;12.93;;;3.63;;
15990;SDS011;8100;50.994;4.538;2023-10-13T15:06:23;13.98;;;4.15;;
15990;SDS011;8100;50.994;4.538;2023-10-13T15:09:15;11.50;;;3.90;;
15990;SDS011;8100;50.994;4.538;2023-10-13T15:12:08;10.52;;;3.92;;
15990;SDS011;8100;50.994;4.538;2023-10-13T15:14:56;11.32;;;4.10;;
15990;SDS011;8100;50.994;4.538;2023-10-13T15:17:44;7.45;;;3.90;;
15990;SDS011;8100;50.994;4.538;2023-10-13T15:20:31;7.65;;;3.75;;
15990;SDS011;8100;50.994;4.538;2023-10-13T15:23:25;10.43;;;3.95;;
15990;SDS011;8100;50.994;4.538;2023-10-13T15:26:17;9.38;;;3.90;;
15990;SDS011;8100;50.994;4.538;2023-10-13T15:29:06;5.03;;;3.33;;
15990;SDS011;8100;50.994;4.538;2023-10-13T15:31:54;7.38;;;3.80;;
15990;SDS011;8100;50.994;4.538;2023-10-13T15:34:50;8.35;;;3.70;;
15990;SDS011;8100;50.994;4.538;2023-10-13T15:37:37;9.35;;;4.05;;
15990;SDS011;8100;50.994;4.538;2023-10-13T15:40:26;5.30;;;3.45;;
15990;SDS011;8100;50.994;4.538;2023-10-13T15:43:15;6.93;;;3.17;;
15990;SDS011;8100;50.994;4.538;2023-10-13T15:46:02;9.70;;;3.47;;
15990;SDS011;8100;50.994;4.538;2023-10-13T15:48:53;7.97;;;3.95;;
15990;SDS011;8100;50.994;4.538;2023-10-13T15:51:40;11.65;;;4.05;;
15990;SDS011;8100;50.994;4.538;2023-10-13T15:54:28;8.30;;;3.80;;
15990;SDS011;8100;50.994;4.538;2023-10-13T15:57:15;9.43;;;3.80;;
15990;SDS011;8100;50.994;4.538;2023-10-13T16:00:06;12.93;;;3.70;;
15990;SDS011;8100;50.994;4.538;2023-10-13T16:03:08;8.18;;;3.80;;
15990;SDS011;8100;50.994;4.538;2023-10-13T16:05:57;11.88;;;4.07;;
15990;SDS011;8100;50.994;4.538;2023-10-13T16:08:45;8.88;;;3.60;;
15990;SDS011;8100;50.994;4.538;2023-10-13T16:11:34;9.00;;;3.75;;
15990;SDS011;8100;50.994;4.538;2023-10-13T16:14:21;10.35;;;3.80;;
15990;SDS011;8100;50.994;4.538;2023-10-13T16:17:10;16.38;;;3.75;;
15990;SDS011;8100;50.994;4.538;2023-10-13T16:19:57;7.40;;;3.13;;
15990;SDS011;8100;50.994;4.538;2023-10-13T16:22:44;11.80;;;3.22;;
15990;SDS011;8100;50.994;4.538;2023-10-13T16:25:33;9.48;;;3.72;;
15990;SDS011;8100;50.994;4.538;2023-10-13T16:28:20;12.85;;;3.55;;
15990;SDS011;8100;50.994;4.538;2023-10-13T16:31:08;12.10;;;3.67;;
15990;SDS011;8100;50.994;4.538;2023-10-13T16:33:56;38.13;;;5.38;;
15990;SDS011;8100;50.994;4.538;2023-10-13T16:36:45;10.45;;;4.50;;
15990;SDS011;8100;50.994;4.538;2023-10-13T16:39:33;14.00;;;4.70;;
15990;SDS011;8100;50.994;4.538;2023-10-13T16:42:24;11.15;;;4.63;;
15990;SDS011;8100;50.994;4.538;2023-10-13T16:45:12;10.15;;;4.60;;
15990;SDS011;8100;50.994;4.538;2023-10-13T16:48:06;13.13;;;4.70;;
15990;SDS011;8100;50.994;4.538;2023-10-13T16:50:58;10.07;;;5.03;;
15990;SDS011;8100;50.994;4.538;2023-10-13T16:53:45;16.58;;;5.15;;
15990;SDS011;8100;50.994;4.538;2023-10-13T16:56:35;10.98;;;4.93;;
15990;SDS011;8100;50.994;4.538;2023-10-13T16:59:24;12.55;;;5.00;;
15990;SDS011;8100;50.994;4.538;2023-10-13T17:02:11;11.73;;;4.80;;
15990;SDS011;8100;50.994;4.538;2023-10-13T17:04:59;13.15;;;4.93;;
15990;SDS011;8100;50.994;4.538;2023-10-13T17:07:49;14.32;;;5.63;;
15990;SDS011;8100;50.994;4.538;2023-10-13T17:10:37;10.50;;;5.07;;
15990;SDS011;8100;50.994;4.538;2023-10-13T17:13:25;9.57;;;4.53;;
15990;SDS011;8100;50.994;4.538;2023-10-13T17:16:12;12.98;;;4.82;;
15990;SDS011;8100;50.994;4.538;2023-10-13T17:19:02;11.18;;;4.57;;
15990;SDS011;8100;50.994;4.538;2023-10-13T17:21:51;12.52;;;4.75;;
15990;SDS011;8100;50.994;4.538;2023-10-13T17:24:39;9.90;;;5.10;;
15990;SDS011;8100;50.994;4.538;2023-10-13T17:27:27;11.65;;;4.57;;
15990;SDS011;8100;50.994;4.538;2023-10-13T17:30:14;8.52;;;4.65;;
15990;SDS011;8100;50.994;4.538;2023-10-13T17:33:01;14.50;;;5.10;;